Time;durP1;ratioP1;P1;durP2;ratioP2;P2;SDS_P1;SDS_P2;PMS_P1;PMS_P2;Temp;Humidity;BMP_temperature;BMP_pressure;BME280_temperature;BME280_humidity;BME280_pressure;Samples;Min_cycle;Max_cycle;Signal;HPM_P1;HPM_P2
2023/12/12 00:00:44;;;;;;;17.92;6.07;;;;;;;6.64;100.00;100665.63;6178083;23;20017;-86
2023/12/12 00:03:10;;;;;;;20.67;5.78;;;;;;;6.66;100.00;100683.94;6178159;23;20037;-87
2023/12/12 00:05:35;;;;;;;19.17;5.88;;;;;;;6.62;100.00;100670.22;6151604;23;20013;-87
2023/12/12 00:08:00;;;;;;;20.70;5.93;;;;;;;6.72;100.00;100693.91;6178009;23;20068;-86
2023/12/12 00:10:26;;;;;;;22.33;6.32;;;;;;;6.71;100.00;100687.78;6178848;23;20331;-87
2023/12/12 00:12:52;;;;;;;19.70;5.90;;;;;;;6.72;100.00;100693.91;6151768;23;20080;-87
2023/12/12 00:15:18;;;;;;;19.98;5.93;;;;;;;6.62;100.00;100672.00;6151438;23;20075;-87
2023/12/12 00:17:43;;;;;;;24.25;6.30;;;;;;;6.56;100.00;100671.56;6177391;23;20020;-87
2023/12/12 00:20:10;;;;;;;19.23;6.50;;;;;;;6.73;100.00;100690.31;6177788;23;20036;-87
2023/12/12 00:22:36;;;;;;;21.60;6.38;;;;;;;6.72;100.00;100688.66;6177825;23;20447;-87
2023/12/12 00:25:07;;;;;;;19.05;5.90;;;;;;;6.75;100.00;100683.06;6178610;23;20012;-87
2023/12/12 00:27:33;;;;;;;20.83;6.75;;;;;;;6.70;100.00;100680.03;6179181;23;20016;-87
2023/12/12 00:29:58;;;;;;;19.83;6.18;;;;;;;6.69;100.00;100678.38;6153864;23;20004;-87
2023/12/12 00:32:23;;;;;;;22.13;5.97;;;;;;;6.73;100.00;100690.31;6205649;23;19997;-86
2023/12/12 00:34:51;;;;;;;22.55;6.82;;;;;;;6.69;100.00;100688.91;6178703;23;20048;-86
2023/12/12 00:37:16;;;;;;;22.65;6.50;;;;;;;6.66;100.00;100684.75;6203023;23;20040;-87
2023/12/12 00:39:42;;;;;;;24.38;6.65;;;;;;;6.63;100.00;100684.19;6154468;23;20388;-87
2023/12/12 00:42:07;;;;;;;22.65;6.53;;;;;;;6.62;100.00;100679.91;6180482;23;20087;-87
2023/12/12 00:44:36;;;;;;;21.40;6.47;;;;;;;6.57;100.00;100680.34;6178927;23;20009;-87
2023/12/12 00:47:01;;;;;;;18.90;5.95;;;;;;;6.49;100.00;100667.00;6178099;23;20032;-87
2023/12/12 00:49:26;;;;;;;22.58;6.50;;;;;;;6.51;100.00;100667.72;6151058;23;20328;-87
2023/12/12 00:51:52;;;;;;;22.85;6.50;;;;;;;6.49;100.00;100675.75;6179116;23;20008;-86
2023/12/12 00:54:17;;;;;;;25.92;6.72;;;;;;;6.42;100.00;100662.28;6179057;23;20008;-87
2023/12/12 00:56:47;;;;;;;19.98;6.07;;;;;;;6.47;100.00;100675.06;6179188;23;20009;-87
2023/12/12 00:59:13;;;;;;;23.80;5.95;;;;;;;6.43;100.00;100673.66;6179799;23;20066;-87
2023/12/12 01:01:38;;;;;;;24.05;6.22;;;;;;;6.35;100.00;100665.63;6179533;23;20669;-88
2023/12/12 01:04:03;;;;;;;22.65;6.28;;;;;;;6.45;100.00;100675.19;6178521;23;20032;-86
2023/12/12 01:06:29;;;;;;;25.98;6.55;;;;;;;6.29;100.00;100645.94;6178660;23;20041;-87
2023/12/12 01:08:56;;;;;;;22.05;6.28;;;;;;;6.42;100.00;100675.47;6178111;23;20016;-88
2023/12/12 01:11:22;;;;;;;19.70;5.90;;;;;;;6.23;100.00;100651.75;6151236;23;20331;-87
2023/12/12 01:13:49;;;;;;;22.20;6.10;;;;;;;6.20;100.00;100652.84;6178741;23;20013;-87
2023/12/12 01:16:15;;;;;;;22.48;6.20;;;;;;;6.28;100.00;100660.06;6178319;23;20017;-87
2023/12/12 01:18:45;;;;;;;21.70;5.78;;;;;;;6.22;100.00;100660.63;6177450;23;20012;-87
2023/12/12 01:21:10;;;;;;;24.52;6.22;;;;;;;6.24;100.00;100664.78;6176557;23;20005;-87
2023/12/12 01:23:52;;;;;;;22.60;6.13;;;;;;;6.30;100.00;100664.25;6176621;23;20009;-87
2023/12/12 01:26:20;;;;;;;23.10;6.60;;;;;;;6.24;100.00;100662.16;6176815;23;20005;-87
2023/12/12 01:28:45;;;;;;;19.05;6.10;;;;;;;6.21;100.00;100654.50;6177185;23;20406;-87
2023/12/12 01:31:11;;;;;;;16.23;5.20;;;;;;;6.11;100.00;100637.91;6176836;23;20158;-87
2023/12/12 01:33:36;;;;;;;17.52;5.43;;;;;;;6.11;100.00;100643.97;6176958;23;20043;-87
2023/12/12 01:36:02;;;;;;;21.83;6.32;;;;;;;6.11;100.00;100648.44;6150642;23;20088;-88
2023/12/12 01:38:27;;;;;;;22.55;6.13;;;;;;;6.05;100.00;100640.09;6176946;23;20004;-86
2023/12/12 01:41:00;;;;;;;24.13;5.85;;;;;;;6.08;100.00;100635.53;6150397;23;20021;-87
2023/12/12 01:43:28;;;;;;;21.60;5.85;;;;;;;5.97;100.00;100637.28;6187134;23;20012;-86
2023/12/12 01:45:57;;;;;;;22.38;6.43;;;;;;;5.96;100.00;100635.63;6185690;23;20009;-87
2023/12/12 01:48:23;;;;;;;21.90;6.25;;;;;;;5.99;100.00;100645.88;6176583;23;20036;-87
2023/12/12 01:50:50;;;;;;;21.67;6.03;;;;;;;5.97;100.00;100647.81;6176331;23;20024;-87
2023/12/12 01:53:19;;;;;;;20.55;5.80;;;;;;;5.89;100.00;100647.66;6176978;23;20013;-87
2023/12/12 01:55:46;;;;;;;23.20;6.00;;;;;;;5.76;100.00;100629.47;6176649;23;20013;-87
2023/12/12 01:58:12;;;;;;;23.23;6.70;;;;;;;5.90;100.00;100646.69;6176621;23;20005;-87
2023/12/12 02:00:38;;;;;;;24.98;6.50;;;;;;;5.88;100.00;100638.91;6176764;23;20407;-87
2023/12/12 02:03:03;;;;;;;26.33;6.70;;;;;;;5.92;100.00;100639.47;6177128;23;20094;-87
2023/12/12 02:05:30;;;;;;;24.85;6.38;;;;;;;5.91;100.00;100648.34;6176477;23;20089;-87
2023/12/12 02:07:57;;;;;;;26.27;6.50;;;;;;;5.92;100.00;100650.00;6149543;23;20017;-87
2023/12/12 02:10:26;;;;;;;24.27;6.22;;;;;;;5.85;100.00;100648.88;6176720;23;20451;-87
2023/12/12 02:12:51;;;;;;;26.92;6.68;;;;;;;5.88;100.00;100648.63;6176776;23;20016;-87
2023/12/12 02:15:17;;;;;;;24.73;6.00;;;;;;;5.73;100.00;100630.56;6176868;23;20339;-87
2023/12/12 02:17:42;;;;;;;27.65;6.70;;;;;;;5.81;100.00;100637.00;6176652;23;20009;-87
2023/12/12 02:20:08;;;;;;;27.98;6.57;;;;;;;5.76;100.00;100630.31;6176410;23;20009;-86
2023/12/12 02:22:36;;;;;;;26.92;6.68;;;;;;;5.75;100.00;100626.03;6149890;23;20513;-87
2023/12/12 02:25:01;;;;;;;25.67;6.78;;;;;;;5.81;100.00;100631.72;6151164;23;20009;-87
2023/12/12 02:27:27;;;;;;;26.00;6.40;;;;;;;5.76;100.00;100630.31;6178722;23;20059;-86
2023/12/12 02:29:54;;;;;;;30.63;6.30;;;;;;;5.79;100.00;100629.22;6190797;23;20001;-85
2023/12/12 02:32:20;;;;;;;24.17;6.22;;;;;;;5.69;100.00;100615.19;6178010;23;20011;-85
2023/12/12 02:34:46;;;;;;;27.77;6.28;;;;;;;5.75;100.00;100618.13;6177294;23;20557;-85
2023/12/12 02:37:12;;;;;;;27.27;6.55;;;;;;;5.68;100.00;100617.03;6165239;23;20013;-86
2023/12/12 02:39:37;;;;;;;30.58;7.03;;;;;;;5.73;100.00;100627.13;6179895;23;20011;-86
2023/12/12 02:42:03;;;;;;;23.15;6.57;;;;;;;5.68;100.00;100622.28;6178546;23;20331;-86
2023/12/12 02:44:28;;;;;;;29.60;6.57;;;;;;;5.71;100.00;100627.25;6177154;23;20084;-86
2023/12/12 02:46:53;;;;;;;28.30;6.35;;;;;;;5.56;100.00;100602.28;6150502;23;20031;-86
2023/12/12 02:49:19;;;;;;;25.73;6.72;;;;;;;5.59;100.00;100609.91;6175996;23;20656;-85
2023/12/12 02:51:44;;;;;;;32.58;7.03;;;;;;;5.59;100.00;100610.75;6177865;23;20017;-87
2023/12/12 02:54:10;;;;;;;30.58;6.30;;;;;;;5.51;100.00;100616.69;6176676;23;20013;-86
2023/12/12 02:56:35;;;;;;;27.00;6.43;;;;;;;5.57;100.00;100619.75;6178683;23;20036;-87
2023/12/12 02:59:00;;;;;;;30.38;6.75;;;;;;;5.57;100.00;100627.66;6176603;23;20230;-86
2023/12/12 03:01:26;;;;;;;30.30;6.40;;;;;;;5.43;100.00;100610.44;6150008;23;20013;-87
2023/12/12 03:03:51;;;;;;;30.95;6.78;;;;;;;5.45;100.00;100617.22;6151096;23;20033;-86
2023/12/12 03:06:17;;;;;;;26.73;6.38;;;;;;;5.48;100.00;100619.56;6178302;23;20462;-87
2023/12/12 03:08:42;;;;;;;28.08;6.47;;;;;;;5.37;100.00;100606.50;6178807;23;20037;-87
2023/12/12 03:11:08;;;;;;;28.65;6.75;;;;;;;5.43;100.00;100623.56;6177968;23;20047;-86
2023/12/12 03:13:33;;;;;;;29.40;6.90;;;;;;;5.35;100.00;100611.09;6178350;23;20462;-87
2023/12/12 03:16:01;;;;;;;30.25;6.65;;;;;;;5.40;100.00;100608.91;6178210;23;20453;-86
2023/12/12 03:18:36;;;;;;;32.03;7.30;;;;;;;5.32;100.00;100601.66;6151199;23;20023;-88
2023/12/12 03:21:01;;;;;;;29.35;6.50;;;;;;;5.25;100.00;100587.38;6151692;23;20028;-87
2023/12/12 03:23:27;;;;;;;32.90;6.75;;;;;;;5.18;100.00;100584.44;6178191;23;20009;-88
2023/12/12 03:25:55;;;;;;;30.10;6.45;;;;;;;5.32;100.00;100596.41;6151208;23;20013;-87
2023/12/12 03:28:20;;;;;;;31.23;6.38;;;;;;;5.29;100.00;100595.84;6151285;23;20187;-86
2023/12/12 03:30:45;;;;;;;29.42;7.32;;;;;;;5.22;100.00;100591.13;6151070;23;20056;-88
2023/12/12 03:33:10;;;;;;;34.63;7.00;;;;;;;5.22;100.00;100585.84;6151817;23;20009;-86
2023/12/12 03:35:36;;;;;;;38.25;7.30;;;;;;;5.10;100.00;100568.53;6178804;23;20046;-87
2023/12/12 03:38:01;;;;;;;31.23;6.45;;;;;;;5.25;100.00;100595.28;6152476;23;20415;-87
2023/12/12 03:40:26;;;;;;;27.33;6.80;;;;;;;5.17;100.00;100576.72;6178331;23;20039;-87
2023/12/12 03:42:52;;;;;;;28.95;6.63;;;;;;;5.26;100.00;100599.56;6151770;23;20005;-86
2023/12/12 03:45:17;;;;;;;33.55;7.40;;;;;;;5.17;100.00;100580.16;6151497;23;20060;-87
2023/12/12 03:47:43;;;;;;;31.63;6.93;;;;;;;5.23;100.00;100577.00;6178562;23;20059;-87
2023/12/12 03:50:08;;;;;;;30.65;6.20;;;;;;;5.21;100.00;100568.44;6177706;23;20470;-87
2023/12/12 03:52:34;;;;;;;34.78;6.93;;;;;;;5.25;100.00;100564.53;6178196;23;20013;-89
2023/12/12 03:54:59;;;;;;;30.58;6.30;;;;;;;5.29;100.00;100559.03;6178493;23;20008;-86
2023/12/12 03:57:24;;;;;;;28.60;6.15;;;;;;;5.28;100.00;100552.13;6178144;23;20504;-87
2023/12/12 03:59:50;;;;;;;32.22;6.82;;;;;;;5.28;100.00;100549.50;6151275;23;20028;-87
2023/12/12 04:02:15;;;;;;;30.90;7.25;;;;;;;5.28;100.00;100536.34;6178290;23;20076;-87
2023/12/12 04:04:40;;;;;;;38.70;7.60;;;;;;;5.30;100.00;100543.13;6177853;23;20447;-87
2023/12/12 04:07:06;;;;;;;34.13;7.50;;;;;;;5.29;100.00;100538.00;6178067;23;20574;-85
2023/12/12 04:09:31;;;;;;;32.58;7.68;;;;;;;5.31;100.00;100538.69;6177461;23;20005;-87
2023/12/12 04:11:56;;;;;;;35.65;7.90;;;;;;;5.37;100.00;100538.16;6177956;23;20084;-86
2023/12/12 04:14:22;;;;;;;31.15;7.72;;;;;;;5.31;100.00;100530.78;6177672;23;20009;-87
2023/12/12 04:16:47;;;;;;;30.13;8.30;;;;;;;5.36;100.00;100528.59;6177459;23;20009;-86
2023/12/12 04:19:13;;;;;;;28.42;8.10;;;;;;;5.39;100.00;100529.16;6177945;23;20020;-87
2023/12/12 04:21:41;;;;;;;33.67;8.20;;;;;;;5.39;100.00;100533.59;6177558;23;20108;-87
2023/12/12 04:24:07;;;;;;;35.58;8.27;;;;;;;5.43;100.00;100528.91;6178329;23;20139;-87
2023/12/12 04:26:32;;;;;;;34.03;8.60;;;;;;;5.31;100.00;100509.75;6179348;23;20029;-87
2023/12/12 04:28:58;;;;;;;33.15;8.18;;;;;;;5.45;100.00;100535.69;6188079;23;20017;-85
2023/12/12 04:31:23;;;;;;;32.40;9.00;;;;;;;5.40;100.00;100524.75;6204122;23;20012;-86
2023/12/12 04:33:48;;;;;;;36.08;8.68;;;;;;;5.42;100.00;100528.06;6204062;23;20001;-86
2023/12/12 04:36:14;;;;;;;38.03;9.52;;;;;;;5.39;100.00;100517.81;6197863;23;20004;-86
2023/12/12 04:38:52;;;;;;;36.55;9.02;;;;;;;5.39;100.00;100523.09;6179577;23;20013;-87
2023/12/12 04:41:20;;;;;;;32.58;8.93;;;;;;;5.50;100.00;100524.75;6178686;23;20131;-88
2023/12/12 04:43:50;;;;;;;30.90;8.52;;;;;;;5.47;100.00;100512.72;6177704;23;20016;-87
2023/12/12 04:46:19;;;;;;;37.72;8.48;;;;;;;5.55;100.00;100532.22;6178086;23;20065;-86
2023/12/12 04:48:45;;;;;;;38.60;8.48;;;;;;;5.50;100.00;100515.09;6178394;23;20005;-87
2023/12/12 04:51:10;;;;;;;34.50;8.43;;;;;;;5.57;100.00;100525.06;6178116;23;20040;-86
2023/12/12 04:53:35;;;;;;;36.58;7.95;;;;;;;5.54;100.00;100522.69;6151284;23;20132;-87
2023/12/12 04:56:01;;;;;;;37.42;8.50;;;;;;;5.52;100.00;100507.03;6150688;23;20016;-87
2023/12/12 04:58:26;;;;;;;35.38;8.43;;;;;;;5.59;100.00;100517.84;6176963;23;20009;-87
2023/12/12 05:00:51;;;;;;;37.55;9.18;;;;;;;5.52;100.00;100501.78;6150311;23;20013;-87
2023/12/12 05:03:17;;;;;;;33.60;8.38;;;;;;;5.60;100.00;100514.25;6177404;23;20521;-87
2023/12/12 05:05:42;;;;;;;37.60;8.95;;;;;;;5.55;100.00;100505.94;6151043;23;20009;-86
2023/12/12 05:08:07;;;;;;;37.15;8.82;;;;;;;5.54;100.00;100496.38;6150924;23;20040;-88
2023/12/12 05:10:33;;;;;;;36.50;8.57;;;;;;;5.58;100.00;100503.03;6177637;23;20427;-87
2023/12/12 05:12:59;;;;;;;36.40;8.40;;;;;;;5.54;100.00;100493.75;6150555;23;20017;-88
2023/12/12 05:15:26;;;;;;;33.05;7.75;;;;;;;5.59;100.00;100496.81;6150402;23;20443;-87
2023/12/12 05:17:52;;;;;;;35.47;9.30;;;;;;;5.60;100.00;100499.31;6150590;23;20009;-89
2023/12/12 05:20:17;;;;;;;34.30;8.43;;;;;;;5.68;100.00;100505.69;6176921;23;20020;-87
2023/12/12 05:22:43;;;;;;;33.95;8.10;;;;;;;5.66;100.00;100487.38;6176950;23;20498;-88
2023/12/12 05:25:08;;;;;;;33.95;8.43;;;;;;;5.65;100.00;100483.09;6176691;23;20008;-87
2023/12/12 05:27:33;;;;;;;42.97;9.15;;;;;;;5.68;100.00;100484.63;6177369;23;20013;-87
2023/12/12 05:29:59;;;;;;;35.72;8.65;;;;;;;5.61;100.00;100463.28;6177047;23;20073;-87
2023/12/12 05:32:24;;;;;;;34.60;8.65;;;;;;;5.65;100.00;100464.69;6189260;23;20513;-87
2023/12/12 05:34:49;;;;;;;42.63;9.30;;;;;;;5.71;100.00;100485.19;6178624;23;20074;-88
2023/12/12 05:37:15;;;;;;;39.55;8.82;;;;;;;5.70;100.00;100478.25;6150284;23;20013;-88
2023/12/12 05:39:40;;;;;;;35.83;8.60;;;;;;;5.75;100.00;100478.69;6176446;23;20075;-88
2023/12/12 05:42:05;;;;;;;40.30;8.45;;;;;;;5.74;100.00;100477.03;6176951;23;20019;-87
2023/12/12 05:44:31;;;;;;;37.60;9.23;;;;;;;5.64;100.00;100452.50;6177060;23;20041;-87
2023/12/12 05:46:57;;;;;;;40.50;8.75;;;;;;;5.64;100.00;100460.41;6177600;23;20020;-87
2023/12/12 05:49:22;;;;;;;41.83;9.65;;;;;;;5.74;100.00;100487.56;6150149;23;20474;-88
2023/12/12 05:51:47;;;;;;;35.22;9.10;;;;;;;5.75;100.00;100486.56;6177668;23;20020;-88
2023/12/12 05:54:13;;;;;;;39.83;8.98;;;;;;;5.66;100.00;100461.09;6151231;23;20008;-87
2023/12/12 05:56:38;;;;;;;39.20;9.23;;;;;;;5.79;100.00;100480.03;6150895;23;20040;-88
2023/12/12 05:59:06;;;;;;;40.03;9.43;;;;;;;5.71;100.00;100473.81;6177689;23;20005;-87
2023/12/12 06:01:31;;;;;;;40.80;8.40;;;;;;;5.75;100.00;100476.06;6155171;23;20013;-88
2023/12/12 06:03:58;;;;;;;37.65;8.45;;;;;;;5.87;100.00;100489.06;6151136;23;20019;-88
2023/12/12 06:06:23;;;;;;;38.35;8.85;;;;;;;5.74;100.00;100471.75;6178713;23;20016;-88
2023/12/12 06:08:48;;;;;;;37.55;8.30;;;;;;;5.81;100.00;100473.84;6179173;23;20005;-87
2023/12/12 06:11:17;;;;;;;39.72;8.75;;;;;;;5.83;100.00;100461.38;6179399;23;20009;-89
2023/12/12 06:13:42;;;;;;;32.78;7.93;;;;;;;5.79;100.00;100460.81;6189382;23;20045;-87
2023/12/12 06:16:10;;;;;;;38.75;8.30;;;;;;;5.79;100.00;100453.72;6167214;23;20064;-87
2023/12/12 06:18:38;;;;;;;36.20;8.23;;;;;;;5.87;100.00;100465.38;6179331;23;20036;-86
2023/12/12 06:21:04;;;;;;;33.30;7.97;;;;;;;5.81;100.00;100447.53;6177757;23;20032;-87
2023/12/12 06:23:30;;;;;;;33.00;8.68;;;;;;;5.95;100.00;100470.75;6177985;23;20013;-87
2023/12/12 06:25:56;;;;;;;39.90;8.70;;;;;;;5.87;100.00;100446.97;6178497;23;20009;-88
2023/12/12 06:28:21;;;;;;;36.30;8.75;;;;;;;5.96;100.00;100456.63;6154685;23;20493;-89
2023/12/12 06:30:46;;;;;;;36.78;8.27;;;;;;;5.96;100.00;100456.63;6204963;23;20005;-85
2023/12/12 06:33:12;;;;;;;33.25;7.75;;;;;;;5.96;100.00;100451.38;6178531;23;19997;-86
2023/12/12 06:35:37;;;;;;;40.20;8.27;;;;;;;5.85;100.00;100425.19;6201509;23;20659;-86
2023/12/12 06:38:05;;;;;;;39.78;8.82;;;;;;;5.98;100.00;100433.66;6183828;23;20011;-85
2023/12/12 06:40:31;;;;;;;37.22;8.73;;;;;;;5.87;100.00;100421.47;6180874;23;20435;-85
2023/12/12 06:42:56;;;;;;;40.95;8.10;;;;;;;5.91;100.00;100414.09;6179426;23;20032;-85
2023/12/12 06:45:21;;;;;;;43.33;8.57;;;;;;;5.95;100.00;100423.38;6178643;23;20393;-85
2023/12/12 06:47:47;;;;;;;36.20;7.68;;;;;;;5.97;100.00;100425.88;6178915;23;20013;-84
2023/12/12 06:50:18;;;;;;;34.83;8.02;;;;;;;6.01;100.00;100422.81;6178662;23;20021;-84
2023/12/12 06:52:46;;;;;;;33.28;7.63;;;;;;;5.96;100.00;100409.25;6177905;23;20017;-84
2023/12/12 06:55:12;;;;;;;38.97;8.88;;;;;;;5.86;100.00;100387.38;6151893;23;20009;-84
2023/12/12 06:57:40;;;;;;;31.88;7.70;;;;;;;6.03;100.00;100405.09;6178275;23;20084;-85
2023/12/12 07:00:06;;;;;;;42.47;9.00;;;;;;;5.94;100.00;100392.78;6150890;23;20017;-84
2023/12/12 07:02:32;;;;;;;40.03;8.43;;;;;;;5.84;100.00;100381.44;6177840;23;20015;-85
2023/12/12 07:04:57;;;;;;;38.35;8.23;;;;;;;5.92;100.00;100402.59;6177987;23;20082;-84
2023/12/12 07:07:23;;;;;;;35.35;7.90;;;;;;;5.82;100.00;100376.31;6150992;23;20005;-86
2023/12/12 07:09:48;;;;;;;33.72;8.18;;;;;;;5.97;100.00;100396.94;6177403;23;20005;-84
2023/12/12 07:12:16;;;;;;;37.65;8.48;;;;;;;5.85;100.00;100377.84;6177950;23;20036;-86
2023/12/12 07:14:41;;;;;;;42.08;8.63;;;;;;;6.02;100.00;100400.81;6178487;23;20107;-85
2023/12/12 07:17:07;;;;;;;33.78;7.93;;;;;;;6.02;100.00;100403.44;6178506;23;20008;-85
2023/12/12 07:19:34;;;;;;;36.35;8.23;;;;;;;6.03;100.00;100397.22;6178135;23;20390;-85
2023/12/12 07:21:59;;;;;;;36.60;8.70;;;;;;;6.04;100.00;100401.53;6178580;23;20109;-86
2023/12/12 07:24:24;;;;;;;34.40;8.00;;;;;;;6.01;100.00;100391.25;6151021;23;20438;-85
2023/12/12 07:26:50;;;;;;;40.22;7.85;;;;;;;6.03;100.00;100394.56;6177946;23;20015;-85
2023/12/12 07:29:19;;;;;;;33.55;7.85;;;;;;;6.03;100.00;100389.31;6178031;23;20088;-85
2023/12/12 07:31:45;;;;;;;36.45;7.40;;;;;;;6.11;100.00;100398.31;6178303;23;20055;-86
2023/12/12 07:34:13;;;;;;;35.53;8.13;;;;;;;6.05;100.00;100387.38;6177729;23;20040;-86
2023/12/12 07:36:41;;;;;;;39.20;8.05;;;;;;;6.14;100.00;100393.59;6177673;23;20012;-86
2023/12/12 07:39:09;;;;;;;40.80;7.57;;;;;;;6.06;100.00;100377.66;6177914;23;20172;-86
2023/12/12 07:41:35;;;;;;;35.55;7.20;;;;;;;6.09;100.00;100363.41;6177115;23;20468;-85
2023/12/12 07:44:03;;;;;;;34.90;8.30;;;;;;;6.26;100.00;100393.44;6178008;23;20005;-86
2023/12/12 07:46:28;;;;;;;37.47;7.78;;;;;;;6.21;100.00;100378.03;6177017;23;20411;-86
2023/12/12 07:48:54;;;;;;;39.83;8.18;;;;;;;6.16;100.00;100351.31;6177704;23;20068;-86
2023/12/12 07:51:20;;;;;;;38.15;9.00;;;;;;;6.21;100.00;100359.59;6178060;23;20009;-85
2023/12/12 07:53:45;;;;;;;32.97;8.00;;;;;;;6.21;100.00;100356.97;6178027;23;20017;-85
2023/12/12 07:56:11;;;;;;;31.95;7.28;;;;;;;6.29;100.00;100365.00;6177868;23;20004;-86
2023/12/12 07:58:36;;;;;;;37.67;7.38;;;;;;;6.24;100.00;100347.97;6178282;23;20033;-85
2023/12/12 08:01:03;;;;;;;36.33;7.40;;;;;;;6.25;100.00;100350.44;6178131;23;20013;-86
2023/12/12 08:03:28;;;;;;;33.63;7.13;;;;;;;6.31;100.00;100359.56;6178850;23;20028;-86
2023/12/12 08:05:53;;;;;;;30.75;7.43;;;;;;;6.21;100.00;100338.53;6177836;23;20075;-86
2023/12/12 08:08:19;;;;;;;35.60;7.32;;;;;;;6.19;100.00;100329.97;6177830;23;20419;-85
2023/12/12 08:10:44;;;;;;;33.75;7.40;;;;;;;6.38;100.00;100354.56;6178810;23;20015;-85
2023/12/12 08:13:13;;;;;;;34.85;7.30;;;;;;;6.37;100.00;100339.72;6179032;23;20071;-85
2023/12/12 08:15:38;;;;;;;41.10;7.63;;;;;;;6.30;100.00;100324.53;6151257;23;20067;-86
2023/12/12 08:18:03;;;;;;;31.17;7.22;;;;;;;6.36;100.00;100324.91;6151749;23;20009;-86
2023/12/12 08:20:29;;;;;;;30.98;7.32;;;;;;;6.45;100.00;100330.13;6177863;23;20515;-86
2023/12/12 08:22:56;;;;;;;34.83;8.30;;;;;;;6.53;100.00;100341.72;6177649;23;20013;-85
2023/12/12 08:25:22;;;;;;;32.10;7.57;;;;;;;6.53;100.00;100329.41;6178395;23;20012;-86
2023/12/12 08:27:47;;;;;;;31.55;6.82;;;;;;;6.58;100.00;100334.22;6182050;23;20317;-85
2023/12/12 08:30:13;;;;;;;31.67;7.68;;;;;;;6.51;100.00;100312.06;6202923;23;20005;-85
2023/12/12 08:32:38;;;;;;;31.58;7.10;;;;;;;6.54;100.00;100306.50;6203320;23;20085;-86
2023/12/12 08:35:05;;;;;;;30.90;7.00;;;;;;;6.71;100.00;100323.31;6199805;23;20324;-86
2023/12/12 08:37:30;;;;;;;30.75;7.50;;;;;;;6.61;100.00;100307.56;6179413;23;20037;-86
2023/12/12 08:39:55;;;;;;;30.52;6.35;;;;;;;6.76;100.00;100331.59;6177681;23;20032;-86
2023/12/12 08:42:21;;;;;;;31.42;6.93;;;;;;;6.80;100.00;100335.59;6176479;23;20008;-86
2023/12/12 08:44:47;;;;;;;29.10;6.60;;;;;;;6.81;100.00;100329.34;6176895;23;20076;-85
2023/12/12 08:47:13;;;;;;;30.50;6.82;;;;;;;6.85;100.00;100329.88;6176180;23;20059;-86
2023/12/12 08:49:39;;;;;;;25.65;6.38;;;;;;;6.80;100.00;100322.41;6176017;23;20447;-86
2023/12/12 08:52:09;;;;;;;30.77;6.32;;;;;;;6.91;100.00;100323.19;6175964;23;20016;-86
2023/12/12 08:54:37;;;;;;;27.98;6.82;;;;;;;6.90;100.00;100308.34;6176763;23;20013;-86
2023/12/12 08:57:05;;;;;;;27.13;6.72;;;;;;;6.92;100.00;100314.28;6177050;23;20009;-86
2023/12/12 08:59:31;;;;;;;30.65;6.97;;;;;;;7.00;100.00;100311.72;6176423;23;20005;-85
2023/12/12 09:01:56;;;;;;;28.02;6.78;;;;;;;6.99;100.00;100296.88;6176349;23;20051;-85
2023/12/12 09:04:22;;;;;;;26.48;6.40;;;;;;;7.07;100.00;100301.41;6149103;23;20040;-85
2023/12/12 09:06:48;;;;;;;29.70;6.53;;;;;;;7.08;100.00;100293.34;6176466;23;20001;-86
2023/12/12 09:09:14;;;;;;;29.20;7.05;;;;;;;7.12;100.00;100278.88;6175819;23;20063;-86
2023/12/12 09:11:40;;;;;;;32.92;7.20;;;;;;;7.18;100.00;100277.44;6176015;23;20435;-85
2023/12/12 09:14:07;;;;;;;28.20;7.20;;;;;;;7.27;100.00;100278.34;6176251;23;20013;-86
2023/12/12 09:16:32;;;;;;;31.20;6.50;;;;;;;7.35;100.00;100273.09;6149896;23;20422;-86
2023/12/12 09:18:57;;;;;;;30.92;7.07;;;;;;;7.43;100.00;100279.41;6176420;23;20009;-86
2023/12/12 09:21:23;;;;;;;25.00;6.22;;;;;;;7.42;100.00;100267.22;6176526;23;20016;-86
2023/12/12 09:23:48;;;;;;;25.83;6.10;;;;;;;7.35;100.00;100251.19;6176272;23;20009;-86
2023/12/12 09:26:14;;;;;;;27.85;6.40;;;;;;;7.46;100.00;100258.03;6149972;23;20017;-86
2023/12/12 09:28:42;;;;;;;25.65;5.85;;;;;;;7.62;100.00;100278.41;6176388;23;20009;-86
2023/12/12 09:31:09;;;;;;;27.80;6.20;;;;;;;7.66;100.00;100275.28;6149659;23;20017;-86
2023/12/12 09:33:52;;;;;;;19.58;5.90;;;;;;;7.61;100.00;100250.34;6176842;23;20019;-86
2023/12/12 09:36:20;;;;;;;24.10;5.60;;;;;;;7.75;100.00;100264.78;6175499;23;20009;-87
2023/12/12 09:38:45;;;;;;;25.90;5.88;;;;;;;7.77;100.00;100249.59;6176637;23;20521;-84
2023/12/12 09:41:20;;;;;;;23.17;5.95;;;;;;;7.76;100.00;100232.13;6149328;23;20005;-86
2023/12/12 09:43:49;;;;;;;21.90;5.40;;;;;;;7.99;100.00;100253.50;6176644;23;20056;-85
2023/12/12 09:46:19;;;;;;;21.23;5.35;;;;;;;8.05;100.00;100249.41;6176577;23;20009;-86
2023/12/12 09:48:47;;;;;;;25.58;5.55;;;;;;;8.11;100.00;100255.84;6176060;23;20005;-87
2023/12/12 09:51:16;;;;;;;22.92;5.47;;;;;;;8.15;100.00;100252.72;6176627;23;20009;-85
2023/12/12 09:53:46;;;;;;;25.35;5.88;;;;;;;8.15;100.00;100247.44;6176698;23;20510;-85
2023/12/12 09:56:13;;;;;;;17.52;5.18;;;;;;;8.13;100.00;100233.56;6182971;23;20040;-86
2023/12/12 09:58:43;;;;;;;17.10;4.90;;;;;;;8.13;100.00;100244.16;6178363;23;20016;-86
2023/12/12 10:01:10;;;;;;;23.20;5.30;;;;;;;8.07;100.00;100223.66;6149869;23;20043;-87
2023/12/12 10:03:36;;;;;;;24.15;4.95;;;;;;;8.04;100.00;100203.69;6176058;23;20766;-87
2023/12/12 10:06:06;;;;;;;21.77;5.10;;;;;;;8.07;100.00;100208.66;6176075;23;20005;-85
2023/12/12 10:08:31;;;;;;;21.13;4.88;;;;;;;8.18;100.00;100215.44;6176770;23;20005;-85
2023/12/12 10:10:56;;;;;;;17.38;4.72;;;;;;;8.20;100.00;100205.53;6176531;23;20015;-85
2023/12/12 10:13:22;;;;;;;19.13;5.07;;;;;;;8.20;100.00;100186.22;6176609;23;20059;-85
2023/12/12 10:15:48;;;;;;;18.85;4.95;;;;;;;8.30;100.00;100186.09;6176424;23;20457;-85
2023/12/12 10:18:14;;;;;;;19.95;5.10;;;;;;;8.32;100.00;100184.09;6176712;23;20067;-85
2023/12/12 10:20:42;;;;;;;19.52;4.70;;;;;;;8.34;100.00;100174.22;6177584;23;20017;-85
2023/12/12 10:23:07;;;;;;;16.48;4.75;;;;;;;8.42;100.00;100174.22;6182500;23;20013;-86
2023/12/12 10:25:37;;;;;;;15.90;4.20;;;;;;;8.58;100.00;100181.34;6204667;23;20060;-86
2023/12/12 10:28:03;;;;;;;16.48;4.28;;;;;;;8.57;100.00;100163.00;6203849;23;20358;-86
2023/12/12 10:30:28;;;;;;;19.88;4.55;;;;;;;8.70;100.00;100176.56;6195552;23;20016;-87
2023/12/12 10:32:54;;;;;;;15.10;4.18;;;;;;;8.78;100.00;100177.56;6179035;23;20016;-86
2023/12/12 10:35:24;;;;;;;15.48;4.20;;;;;;;8.77;100.00;100173.28;6178366;23;20037;-85
2023/12/12 10:37:52;;;;;;;17.88;4.85;;;;;;;8.89;100.00;100169.28;6176538;23;20041;-86
2023/12/12 10:40:21;;;;;;;18.25;4.25;;;;;;;8.94;100.00;100166.13;6176365;23;20017;-85
2023/12/12 10:42:48;;;;;;;14.30;4.22;;;;;;;8.99;100.00;100164.63;6176000;23;20032;-85
2023/12/12 10:45:14;;;;;;;14.80;4.03;;;;;;;8.85;100.00;100141.53;6176743;23;20009;-86
2023/12/12 10:47:48;;;;;;;13.43;3.60;;;;;;;8.98;100.00;100157.69;6175967;23;20012;-86
2023/12/12 10:50:16;;;;;;;14.55;3.40;;;;;;;9.00;100.00;100161.03;6176560;23;20100;-86
2023/12/12 10:52:43;;;;;;;13.48;3.80;;;;;;;9.02;100.00;100151.09;6149834;23;20001;-88
2023/12/12 10:55:13;;;;;;;12.60;3.60;;;;;;;9.00;100.00;100145.16;6177106;23;20008;-86
2023/12/12 10:57:42;;;;;;;11.82;3.50;;;;;;;8.95;100.00;100139.53;6178449;23;20009;-92
2023/12/12 11:00:12;;;;;;;13.65;3.40;;;;;;;8.94;100.00;100151.09;6151023;23;20017;-86
2023/12/12 11:02:54;;;;;;;11.18;3.90;;;;;;;8.82;100.00;100120.69;6152805;23;20029;-87
2023/12/12 11:05:19;;;;;;;9.23;2.93;;;;;;;8.89;100.00;100116.41;6151876;23;20108;-87
2023/12/12 11:07:47;;;;;;;11.98;3.53;;;;;;;8.80;100.00;100098.91;6152132;23;20047;-86
2023/12/12 11:10:14;;;;;;;11.70;3.55;;;;;;;8.84;100.00;100113.44;6152137;23;20013;-89
2023/12/12 11:12:49;;;;;;;11.30;3.65;;;;;;;8.73;100.00;100091.63;6151769;23;20024;-88